Dowagiac, MI (49047)

11:45 PM EDT on September 01, 2014 (GMT -0400)
Cass County | Change Station
CLOSE
Current Station
Personal Weather Station
Location: Cassopolis, MI
Elevation: 879 ft
Nearby Weather Stations

Elev 879 ft 41.88 °N, 86.04 °W | Updated 7 seconds ago

Clear
Clear
71.1 °F
Feels Like 73 °F
N
0.0
Wind Variable Wind from SSW
Gusts 7.2 mph

Today
High -- | Low -- °F
--% Chance of Precip.
Yesterday
High -- | Low -- °F
Precip. -- in
7:10 AM 8:18 PM
Waxing Crescent, 47% visible
Pressure 29.82 in
Visibility 10.0 miles
Clouds Clear
Heat Index 73 °F
Dew Point 62 °F
Humidity 73%
Rainfall 0.00 in
Snow Depth Not available.
UV 0 out of 12
Pollen 10.00 out of 12
Ozone Good
PM2.5 Good
Flu Activity Not available.
METAR KBEH 020253Z AUTO 24013KT 10SM CLR 24/19 A2983 RMK AO2 SLP097 T02390189 53016

More Conditions Fewer Conditions

Pressure 29.82 in
Visibility 10.0 miles
Clouds Clear
Heat Index 73 °F
Dew Point 62 °F
Humidity 73%
Rainfall 0.00 in
Snow Depth Not available.
UV 0 out of 12
Pollen 10.00 out of 12
Ozone Good
PM2.5 Good
Flu Activity Not available.
METAR KBEH 020253Z AUTO 24013KT 10SM CLR 24/19 A2983 RMK AO2 SLP097 T02390189 53016

More Conditions Fewer Conditions

10-Day Weather Forecast

Almanac

Astronomy

Sep. 01, 2014 Rise Set
Actual Time 7:10 AM EDT 8:18 PM EDT
Civil Twilight 6:41 AM EDT 8:46 PM EDT
Nautical Twilight 6:06 AM EDT 9:20 PM EDT
Astronomical Twilight 5:30 AM EDT 9:56 PM EDT
Moon 2:01 PM EDT (9/1) No Moon Set
Length of Visible Light 14h 05m
Length of Day
13h 07m
Tomorrow will be 2m 43s shorter.
Waxing Crescent, 47% of the Moon is Illuminated
Today
Waxing Crescent
Sep 2
First Quarter
Sep 8
Full
Sep 15
Last Quarter
Sep 24
New

Today's Extremes

State Highs State Lows

Community

WunderPhotos

Upload Photos

1,749,557 photos uploaded!

WunderBlogs® & News

Nearby

Air Quality

  Air Quality AQ Index Pollutant
Yesterday Good
OZONE
Yesterday Good
PM2.5
Current Good
OZONE
Current Good
PM2.5
Monday Good
OZONE
Monday Good
PM2.5
Tuesday Good
OZONE
Tuesday Good
PM2.5

Snow Depth

Station Depth Elevation
No new snow has been reported.

Earthquake Activity

City Distance Mag. Time & Date
No recent earthquake activity has been reported nearby.
Minimum magnitude displayed is 2.5.

Coastal Water Temperatures

Place Temperature
Holland, MI 71.1 °F

Nearby Weather Stations